Time;durP1;ratioP1;P1;durP2;ratioP2;P2;SDS_P1;SDS_P2;PMS_P1;PMS_P2;Temp;Humidity;BMP_temperature;BMP_pressure;BME280_temperature;BME280_humidity;BME280_pressure;Samples;Min_cycle;Max_cycle;Signal;HPM_P1;HPM_P2
2021/12/21 00:00:38;;;;;;;3.10;1.37;;;;;;;-10.16;55.86;98776.09;6066352;23;20031;-79
2021/12/21 00:03:04;;;;;;;2.60;1.40;;;;;;;-10.14;56.48;98767.84;6066723;23;20097;-78
2021/12/21 00:05:31;;;;;;;3.37;1.20;;;;;;;-10.13;56.11;98763.69;6065855;23;20019;-80
2021/12/21 00:08:03;;;;;;;2.90;1.43;;;;;;;-10.33;55.54;98739.91;6089709;23;20023;-79
2021/12/21 00:10:32;;;;;;;2.77;1.40;;;;;;;-10.25;55.37;98763.88;6066702;23;20027;-78
2021/12/21 00:13:04;;;;;;;2.30;1.30;;;;;;;-10.35;54.90;98779.19;6088897;23;20023;-79
2021/12/21 00:18:34;;;;;;;4.03;1.57;;;;;;;-10.28;55.94;98771.25;6066641;23;20018;-81
2021/12/21 00:23:39;;;;;;;3.40;1.50;;;;;;;-10.42;55.83;98778.03;6066680;23;20046;-78
2021/12/21 00:26:20;;;;;;;1.40;1.17;;;;;;;-10.42;55.47;98783.06;6092090;23;20085;-80
2021/12/21 00:31:14;;;;;;;3.17;1.30;;;;;;;-10.34;55.81;98779.31;6069715;23;20019;-80
2021/12/21 00:33:41;;;;;;;2.13;1.00;;;;;;;-10.67;55.82;98765.69;6065573;23;20191;-80
2021/12/21 00:36:09;;;;;;;7.37;1.47;;;;;;;-10.49;55.50;98788.53;6088924;23;20018;-78
2021/12/21 00:38:35;;;;;;;2.83;1.40;;;;;;;-10.43;55.82;98796.41;6066332;23;20041;-78
2021/12/21 00:41:01;;;;;;;2.50;1.27;;;;;;;-10.43;55.81;98798.91;6066593;23;20577;-80
2021/12/21 00:43:27;;;;;;;1.60;1.03;;;;;;;-10.58;55.56;98770.38;6066671;23;20461;-80
2021/12/21 00:45:53;;;;;;;2.17;1.40;;;;;;;-10.48;55.33;98796.16;6089288;23;20106;-79
2021/12/21 00:48:19;;;;;;;3.60;1.27;;;;;;;-10.60;55.46;98765.25;6065253;23;20018;-80
2021/12/21 00:50:45;;;;;;;2.90;1.37;;;;;;;-10.49;55.28;98791.03;6065049;23;20073;-77
2021/12/21 00:53:12;;;;;;;4.10;1.53;;;;;;;-10.45;55.21;98800.47;6041462;23;20046;-80
2021/12/21 00:55:38;;;;;;;2.70;1.10;;;;;;;-10.49;55.39;98786.88;6066682;23;20055;-80
2021/12/21 00:58:04;;;;;;;3.47;1.37;;;;;;;-10.57;55.22;98765.41;6064955;23;20026;-78
2021/12/21 01:00:31;;;;;;;2.73;1.33;;;;;;;-10.29;55.83;98800.56;6078239;23;20065;-78
2021/12/21 01:03:04;;;;;;;3.13;1.30;;;;;;;-10.73;55.58;98742.69;6104771;23;20036;-80
2021/12/21 01:05:38;;;;;;;1.67;1.10;;;;;;;-10.56;55.36;98758.75;6066121;23;20025;-78
2021/12/21 01:08:05;;;;;;;2.57;1.40;;;;;;;-10.31;55.00;98806.28;6064963;23;20029;-79
2021/12/21 01:18:13;;;;;;;2.13;1.10;;;;;;;-10.43;55.47;98783.81;6067946;23;20022;-79
2021/12/21 01:20:46;;;;;;;3.20;1.27;;;;;;;-10.33;55.24;98791.13;6094292;23;20025;-80
2021/12/21 01:35:50;;;;;;;2.80;1.30;;;;;;;-10.47;54.81;98765.19;6102396;23;20046;-79
2021/12/21 01:43:42;;;;;;;4.13;1.37;;;;;;;-10.29;55.17;98815.69;6041570;23;20014;-77
2021/12/21 01:51:37;;;;;;;2.87;1.20;;;;;;;-10.31;54.94;98819.75;6067884;23;20019;-80
2021/12/21 01:54:03;;;;;;;4.30;1.37;;;;;;;-10.24;54.54;98826.00;6066359;23;20022;-78
2021/12/21 01:56:30;;;;;;;2.37;1.33;;;;;;;-10.26;54.26;98821.66;6064192;23;20022;-79
2021/12/21 01:58:56;;;;;;;2.50;1.30;;;;;;;-10.33;54.85;98818.78;6067337;23;20405;-79
2021/12/21 02:01:24;;;;;;;3.57;1.33;;;;;;;-10.21;55.00;98830.31;6068840;23;20023;-77
2021/12/21 02:03:50;;;;;;;2.53;1.13;;;;;;;-10.24;54.78;98827.63;6071197;23;20023;-80
2021/12/21 02:06:22;;;;;;;2.20;1.60;;;;;;;-10.41;54.91;98799.88;6072720;23;20055;-80
2021/12/21 02:08:57;;;;;;;3.40;1.40;;;;;;;-10.32;55.01;98829.72;6068649;23;20030;-79
2021/12/21 02:11:23;;;;;;;3.33;1.20;;;;;;;-10.56;54.68;98792.31;6105781;23;20003;-80
2021/12/21 02:13:50;;;;;;;2.13;1.27;;;;;;;-10.65;54.54;98797.66;6048206;23;20114;-78
2021/12/21 02:16:25;;;;;;;3.10;1.30;;;;;;;-10.48;54.99;98833.03;6064523;23;20074;-80
2021/12/21 02:19:06;;;;;;;3.53;1.07;;;;;;;-10.37;54.76;98831.97;6065075;23;20030;-79
2021/12/21 02:21:38;;;;;;;2.30;1.20;;;;;;;-10.34;55.61;98843.84;6065463;23;20019;-78
2021/12/21 02:24:10;;;;;;;2.60;0.97;;;;;;;-10.63;54.79;98797.78;6087784;23;20469;-80
2021/12/21 02:26:44;;;;;;;;;;;;;;;-10.33;54.61;98843.94;6090946;23;20022;-79
2021/12/21 02:29:16;;;;;;;4.57;1.20;;;;;;;-10.41;54.49;98851.84;6065938;23;20002;-77
2021/12/21 02:31:47;;;;;;;1.75;0.95;;;;;;;-10.58;54.45;98836.63;6067007;23;20034;-77
2021/12/21 02:34:14;;;;;;;5.22;1.05;;;;;;;-10.65;54.24;98845.44;6042128;23;20070;-77
2021/12/21 02:36:46;;;;;;;1.97;1.00;;;;;;;-10.70;54.96;98848.47;6090309;23;20507;-77
2021/12/21 02:39:14;;;;;;;1.30;0.87;;;;;;;-10.65;54.60;98847.97;6067688;23;20023;-80
2021/12/21 02:41:41;;;;;;;3.30;1.07;;;;;;;-10.51;54.54;98868.91;6065953;23;20453;-79
2021/12/21 02:44:07;;;;;;;1.80;1.10;;;;;;;-10.53;54.89;98867.09;6067683;23;20019;-80
2021/12/21 02:46:38;;;;;;;5.30;1.70;;;;;;;-10.50;54.75;98873.16;6089924;23;20014;-78
2021/12/21 02:49:06;;;;;;;3.85;1.38;;;;;;;-10.47;55.17;98865.81;6067518;23;20018;-80
2021/12/21 02:51:32;;;;;;;4.43;1.30;;;;;;;-10.68;54.23;98831.84;6066024;23;20101;-78
2021/12/21 02:53:58;;;;;;;3.03;1.37;;;;;;;-10.77;54.01;98832.16;6065864;23;20023;-78
2021/12/21 02:56:24;;;;;;;2.33;1.03;;;;;;;-10.90;54.20;98823.84;6067766;23;20118;-80
2021/12/21 02:58:49;;;;;;;3.87;1.37;;;;;;;-10.64;54.46;98871.47;6068631;23;20018;-79
2021/12/21 03:01:16;;;;;;;2.43;1.27;;;;;;;-10.87;54.40;98834.88;6066422;23;20019;-79
2021/12/21 03:03:42;;;;;;;1.67;1.10;;;;;;;-10.68;54.72;98877.09;6042737;23;20022;-79
2021/12/21 03:06:13;;;;;;;3.40;1.07;;;;;;;-10.65;54.38;98874.78;6067878;23;20074;-78
2021/12/21 03:08:45;;;;;;;2.92;0.93;;;;;;;-10.62;54.97;98864.91;6090630;23;20022;-78
2021/12/21 03:11:20;;;;;;;2.23;0.93;;;;;;;-10.54;54.61;98878.78;6070348;23;20019;-79
2021/12/21 03:13:54;;;;;;;4.20;1.20;;;;;;;-10.51;54.75;98878.13;6077606;23;20098;-78
2021/12/21 03:16:21;;;;;;;1.93;1.03;;;;;;;-10.68;55.18;98860.34;6113409;23;20034;-77
2021/12/21 03:18:47;;;;;;;2.47;1.00;;;;;;;-10.52;54.56;98884.78;6078140;23;20018;-79
2021/12/21 03:21:13;;;;;;;7.43;1.33;;;;;;;-10.55;54.41;98888.78;6033884;23;19999;-77
2021/12/21 03:23:40;;;;;;;1.67;1.10;;;;;;;-10.54;54.64;98886.34;6101035;23;20038;-79
2021/12/21 03:26:07;;;;;;;2.83;1.30;;;;;;;-10.68;54.88;98874.59;6067194;23;20102;-77
2021/12/21 03:28:33;;;;;;;1.97;1.13;;;;;;;-10.55;54.44;98897.16;6065606;23;20042;-78
2021/12/21 03:30:58;;;;;;;2.87;1.40;;;;;;;-10.48;54.39;98895.91;6089315;23;20023;-79
2021/12/21 03:33:26;;;;;;;2.83;1.30;;;;;;;-10.39;54.34;98891.41;6041615;23;20295;-77
2021/12/21 03:35:52;;;;;;;3.30;1.30;;;;;;;-10.42;54.87;98893.75;6089950;23;20022;-77
2021/12/21 03:38:18;;;;;;;3.93;1.33;;;;;;;-10.50;54.13;98900.84;6069130;23;20410;-79
2021/12/21 03:40:44;;;;;;;2.30;1.10;;;;;;;-10.48;54.95;98901.81;6092946;23;20075;-79
2021/12/21 03:43:11;;;;;;;4.17;1.40;;;;;;;-10.50;53.86;98894.94;6067564;23;20488;-79
2021/12/21 03:45:48;;;;;;;2.37;1.10;;;;;;;-10.68;53.80;98860.34;6067901;23;20026;-77
2021/12/21 03:48:15;;;;;;;2.77;1.37;;;;;;;-10.57;54.42;98871.06;6072032;23;20019;-79
2021/12/21 03:50:41;;;;;;;2.70;1.20;;;;;;;-10.48;54.39;98883.34;6067665;23;20046;-78
2021/12/21 03:53:07;;;;;;;4.57;1.63;;;;;;;-10.41;55.08;98898.00;6071259;23;20102;-80
2021/12/21 03:55:33;;;;;;;3.43;1.63;;;;;;;-10.45;54.74;98901.09;6067277;23;20365;-76
2021/12/21 03:57:59;;;;;;;3.17;1.63;;;;;;;-10.43;54.09;98897.03;6066027;23;20508;-79
2021/12/21 04:00:27;;;;;;;2.77;1.60;;;;;;;-10.38;54.38;98923.31;6041872;23;20019;-77
2021/12/21 04:02:53;;;;;;;3.07;1.87;;;;;;;-10.43;54.02;98903.72;6065542;23;20018;-77
2021/12/21 04:05:44;;;;;;;3.43;1.40;;;;;;;-10.31;54.45;98915.38;6089963;23;20062;-79
2021/12/21 04:08:09;;;;;;;4.30;1.67;;;;;;;-10.41;54.32;98892.97;6089324;23;20019;-79
2021/12/21 04:10:35;;;;;;;2.40;1.10;;;;;;;-10.61;54.10;98857.44;6066135;23;20441;-79
2021/12/21 04:13:01;;;;;;;4.60;1.50;;;;;;;-10.24;54.43;98918.22;6042296;23;20127;-79
2021/12/21 04:15:29;;;;;;;5.07;1.67;;;;;;;-10.25;54.69;98921.50;6089649;23;20018;-76
2021/12/21 04:17:55;;;;;;;4.23;1.40;;;;;;;-10.31;53.93;98925.44;6066127;23;20089;-79
2021/12/21 04:20:20;;;;;;;2.60;1.43;;;;;;;-10.30;54.13;98912.06;6065407;23;20022;-76
2021/12/21 04:22:46;;;;;;;2.70;1.50;;;;;;;-10.19;54.19;98921.88;6068436;23;20018;-78
2021/12/21 04:25:12;;;;;;;4.27;1.40;;;;;;;-10.14;54.06;98928.06;6093819;23;20022;-79
2021/12/21 04:27:38;;;;;;;9.13;4.10;;;;;;;-10.18;53.98;98928.66;6070907;23;20027;-78
2021/12/21 04:30:05;;;;;;;2.87;1.30;;;;;;;-10.22;53.62;98927.63;6076927;23;20046;-78
2021/12/21 04:32:30;;;;;;;3.10;1.10;;;;;;;-10.71;53.23;98857.69;6080782;23;20025;-77
2021/12/21 04:34:56;;;;;;;2.07;1.33;;;;;;;-10.52;53.87;98889.81;6077178;23;20019;-78
2021/12/21 04:37:23;;;;;;;3.00;1.30;;;;;;;-10.66;54.46;98868.84;6103989;23;20114;-78
2021/12/21 04:40:00;;;;;;;2.63;1.27;;;;;;;-10.74;53.08;98892.69;6111883;23;20045;-76
2021/12/21 04:42:26;;;;;;;2.03;1.20;;;;;;;-10.61;54.17;98947.97;6083448;23;20014;-78
2021/12/21 04:44:52;;;;;;;4.57;1.30;;;;;;;-10.84;54.11;98928.97;6102233;23;20085;-75
2021/12/21 04:47:18;;;;;;;2.07;1.07;;;;;;;-10.75;53.42;98954.66;6077989;23;20053;-76
2021/12/21 04:49:44;;;;;;;1.67;1.20;;;;;;;-10.72;53.87;98954.00;6101878;23;20018;-76
2021/12/21 04:52:09;;;;;;;2.00;1.13;;;;;;;-10.72;54.10;98956.53;6076126;23;20019;-80
2021/12/21 04:54:36;;;;;;;3.80;1.30;;;;;;;-10.79;53.32;98936.78;6073248;23;20022;-78
2021/12/21 04:57:02;;;;;;;2.70;1.10;;;;;;;-10.79;53.73;98931.75;6113522;23;20043;-75
2021/12/21 04:59:28;;;;;;;2.43;1.20;;;;;;;-10.96;53.72;98916.50;6085554;23;20054;-74
2021/12/21 05:01:54;;;;;;;3.13;1.00;;;;;;;-10.80;53.28;98948.47;6097500;23;20521;-78
2021/12/21 05:04:20;;;;;;;2.37;1.30;;;;;;;-10.86;53.83;98947.22;6089255;23;20042;-79
2021/12/21 05:06:46;;;;;;;3.10;1.47;;;;;;;-10.80;53.06;98965.22;6065142;23;20368;-79
2021/12/21 05:09:22;;;;;;;1.83;1.07;;;;;;;-10.83;53.84;98965.03;6067537;23;20485;-79
2021/12/21 05:11:48;;;;;;;2.13;1.10;;;;;;;-10.93;53.86;98948.50;6065000;23;20026;-79
2021/12/21 05:14:13;;;;;;;1.70;1.10;;;;;;;-10.83;54.22;98967.53;6088904;23;20102;-77
2021/12/21 05:16:39;;;;;;;2.23;1.10;;;;;;;-10.95;54.02;98955.06;6065859;23;20074;-80
2021/12/21 05:19:05;;;;;;;1.23;0.80;;;;;;;-11.07;53.59;98955.16;6066192;23;20083;-77
2021/12/21 05:21:31;;;;;;;2.40;1.30;;;;;;;-10.99;53.63;98979.16;6087849;23;20022;-80
2021/12/21 05:23:57;;;;;;;2.60;1.27;;;;;;;-11.03;53.88;98969.66;6040730;23;20094;-80
2021/12/21 05:26:23;;;;;;;2.97;1.03;;;;;;;-10.86;53.35;98979.91;6065152;23;20018;-79
2021/12/21 05:28:49;;;;;;;1.73;1.13;;;;;;;-10.97;53.43;98967.56;6064868;23;20029;-78
2021/12/21 05:31:15;;;;;;;2.50;1.13;;;;;;;-10.91;53.37;98965.41;6087897;23;20102;-77
2021/12/21 05:33:41;;;;;;;3.77;1.00;;;;;;;-10.72;53.94;98994.25;6087727;23;20031;-78
2021/12/21 05:36:07;;;;;;;3.50;1.37;;;;;;;-10.87;53.81;98948.00;6088437;23;20441;-77
2021/12/21 05:38:35;;;;;;;2.63;1.50;;;;;;;-10.60;53.71;98989.09;6066664;23;20018;-77
2021/12/21 05:41:05;;;;;;;2.53;1.20;;;;;;;-10.55;53.95;99000.28;6076115;23;20023;-79
2021/12/21 05:43:31;;;;;;;2.30;1.20;;;;;;;-10.78;53.72;98961.16;6101770;23;20018;-76
2021/12/21 05:45:57;;;;;;;4.07;1.37;;;;;;;-10.61;53.57;98998.28;6065821;23;20098;-78
2021/12/21 05:48:23;;;;;;;5.00;1.60;;;;;;;-10.58;53.76;98997.59;6088582;23;20026;-80
2021/12/21 05:50:49;;;;;;;2.40;1.20;;;;;;;-10.62;53.81;99009.09;6069221;23;20393;-79
2021/12/21 05:53:15;;;;;;;4.77;1.50;;;;;;;-10.62;53.63;99003.22;6067240;23;20019;-79
2021/12/21 05:55:41;;;;;;;3.93;1.57;;;;;;;-10.57;53.68;98995.97;6071601;23;20023;-79
2021/12/21 05:58:07;;;;;;;4.47;1.40;;;;;;;-10.57;53.31;99006.00;6043538;23;20046;-78
2021/12/21 06:00:35;;;;;;;3.63;1.67;;;;;;;-10.57;53.68;99001.84;6066769;23;20023;-76
2021/12/21 06:03:02;;;;;;;5.80;1.60;;;;;;;-10.64;53.11;99022.38;6048365;23;20070;-80
2021/12/21 06:05:28;;;;;;;3.30;1.73;;;;;;;-10.71;53.13;99003.53;6067948;23;20023;-78
2021/12/21 06:07:55;;;;;;;3.70;1.87;;;;;;;-10.66;53.86;98998.78;6066942;23;20465;-78
2021/12/21 06:10:28;;;;;;;3.77;1.90;;;;;;;-10.51;53.85;98994.69;6041586;23;20465;-76
2021/12/21 06:13:23;;;;;;;3.93;2.43;;;;;;;-10.38;53.20;99016.41;6066686;23;20073;-79
2021/12/21 06:26:44;;;;;;;5.03;2.33;;;;;;;-10.25;53.20;99009.59;6075858;23;20097;-78
2021/12/21 06:29:11;;;;;;;5.57;2.27;;;;;;;-10.21;53.08;99026.63;6099016;23;20014;-79
2021/12/21 06:31:39;;;;;;;5.70;2.60;;;;;;;-10.41;53.27;98993.59;6066534;23;20089;-78
2021/12/21 06:34:05;;;;;;;5.67;2.57;;;;;;;-10.17;52.93;99031.97;6043534;23;20417;-78
2021/12/21 06:36:31;;;;;;;4.50;2.50;;;;;;;-10.17;53.48;99036.09;6072243;23;20046;-78
2021/12/21 06:38:58;;;;;;;4.87;2.57;;;;;;;-10.13;52.89;99033.88;6080298;23;20022;-78
2021/12/21 06:41:25;;;;;;;4.07;2.10;;;;;;;-10.25;53.20;99017.16;6087425;23;20027;-78
2021/12/21 06:43:51;;;;;;;7.53;2.73;;;;;;;-10.37;53.38;99007.22;6079185;23;20030;-77
2021/12/21 06:46:45;;;;;;;5.50;2.43;;;;;;;-10.59;53.45;98978.28;6067432;23;20014;-79
2021/12/21 06:51:52;;;;;;;9.57;2.90;;;;;;;-10.45;53.62;99000.09;6083691;23;20003;-76
2021/12/21 06:54:18;;;;;;;7.70;2.83;;;;;;;-10.17;53.05;99029.44;6072348;23;20027;-78
2021/12/21 06:56:47;;;;;;;4.97;2.77;;;;;;;-10.34;53.66;98990.66;6069827;23;20019;-78
2021/12/21 06:59:13;;;;;;;7.40;2.70;;;;;;;-10.50;52.82;98951.16;6094386;23;20121;-79
2021/12/21 07:01:39;;;;;;;4.67;2.40;;;;;;;-10.49;52.64;98967.97;6070839;23;20101;-75
2021/12/21 07:04:07;;;;;;;7.70;2.50;;;;;;;-10.07;53.25;99037.53;6072851;23;20018;-79
2021/12/21 07:06:36;;;;;;;6.77;2.60;;;;;;;-9.98;52.96;99051.56;6074063;23;20025;-78
2021/12/21 07:09:14;;;;;;;5.53;3.00;;;;;;;-9.92;53.11;99053.56;6094693;23;20365;-78
2021/12/21 07:17:47;;;;;;;6.57;2.53;;;;;;;-10.26;53.12;98995.31;6070149;23;20022;-77
2021/12/21 07:18:24;;;;;;;5.70;2.50;;;;;;;-9.81;53.08;99054.22;6096691;23;20049;-79
2021/12/21 07:20:06;;;;;;;5.40;2.63;;;;;;;-9.71;52.60;99064.06;6056660;23;20021;-77
2021/12/21 07:22:32;;;;;;;5.33;2.50;;;;;;;-9.69;53.11;99071.69;6069986;23;20021;-79
2021/12/21 07:24:58;;;;;;;7.33;2.73;;;;;;;-9.99;53.06;99014.56;6093639;23;20019;-79
2021/12/21 07:27:23;;;;;;;8.37;2.97;;;;;;;-9.66;52.44;99061.81;6071765;23;20014;-77
2021/12/21 07:29:49;;;;;;;7.43;3.27;;;;;;;-9.89;52.75;99047.84;6076769;23;20025;-79
2021/12/21 07:32:18;;;;;;;6.93;2.87;;;;;;;-9.73;52.99;99078.22;6074078;23;20497;-79
2021/12/21 07:34:47;;;;;;;5.90;2.60;;;;;;;-9.73;52.95;99060.59;6050239;23;20089;-77
2021/12/21 07:37:13;;;;;;;10.00;3.17;;;;;;;-9.74;52.58;99030.28;6094994;23;20495;-78
2021/12/21 07:39:41;;;;;;;4.47;2.80;;;;;;;-9.65;52.37;99057.66;6091149;23;20022;-77
2021/12/21 07:42:10;;;;;;;6.40;2.80;;;;;;;-9.53;52.90;99081.06;6068553;23;20442;-80
2021/12/21 07:44:42;;;;;;;7.10;3.20;;;;;;;-9.74;52.61;99021.06;6091828;23;20583;-80
2021/12/21 07:47:10;;;;;;;7.63;2.93;;;;;;;-10.12;52.09;98949.16;6021336;23;20025;-78
2021/12/21 07:49:50;;;;;;;5.73;3.13;;;;;;;-9.58;53.16;99032.91;6092258;23;20097;-81
2021/12/21 07:52:41;;;;;;;7.30;2.80;;;;;;;-9.91;52.76;98986.47;6067147;23;20010;-76
2021/12/21 07:55:13;;;;;;;5.03;2.87;;;;;;;-9.68;52.57;99044.09;6066314;23;20066;-80
2021/12/21 07:57:51;;;;;;;;;;;;;;;;;;;;;
2021/12/21 08:00:24;;;;;;;5.15;2.58;;;;;;;-10.83;51.87;98846.84;6100198;23;20015;-80
2021/12/21 08:02:53;;;;;;;5.10;2.77;;;;;;;-9.44;52.15;99076.56;6081381;23;20073;-79
2021/12/21 08:05:31;;;;;;;5.83;2.83;;;;;;;-9.32;52.35;99094.06;6090161;23;20553;-79
2021/12/21 08:08:09;;;;;;;6.28;2.35;;;;;;;-9.46;51.96;99050.41;6091859;23;20155;-78
2021/12/21 08:13:33;;;;;;;5.83;2.47;;;;;;;-9.31;51.95;99090.75;6089414;23;20011;-78
2021/12/21 08:15:59;;;;;;;4.17;1.90;;;;;;;-9.35;51.87;99071.19;6068204;23;20049;-79
2021/12/21 08:18:28;;;;;;;4.03;2.37;;;;;;;-9.10;52.04;99087.75;6068267;23;20026;-79
2021/12/21 08:21:00;;;;;;;6.60;2.30;;;;;;;-9.17;52.19;99063.84;6075618;23;20002;-79
2021/12/21 08:23:48;;;;;;;6.15;2.63;;;;;;;-9.76;52.00;98984.84;6090761;23;20055;-79
2021/12/21 08:26:14;;;;;;;10.57;2.30;;;;;;;-9.00;52.22;99092.53;6077058;23;20022;-77
2021/12/21 08:28:40;;;;;;;6.30;2.30;;;;;;;-9.11;52.09;99074.25;6067868;23;20019;-78
2021/12/21 08:31:10;;;;;;;7.07;2.60;;;;;;;-8.87;52.00;99088.19;6066891;23;20023;-79
2021/12/21 08:33:37;;;;;;;7.37;2.63;;;;;;;-8.81;52.26;99086.00;6066050;23;20019;-82
2021/12/21 08:36:07;;;;;;;3.53;2.20;;;;;;;-9.02;52.05;99033.56;6066044;23;20457;-77
2021/12/21 08:38:36;;;;;;;4.33;2.40;;;;;;;-8.77;51.87;99065.22;6067415;23;20464;-79
2021/12/21 08:41:03;;;;;;;4.50;2.37;;;;;;;-8.63;52.27;99081.13;6040307;23;20413;-79
2021/12/21 08:43:32;;;;;;;6.50;2.73;;;;;;;-8.63;51.79;99086.19;6088059;23;20023;-80
2021/12/21 08:45:59;;;;;;;4.87;2.80;;;;;;;-8.63;52.03;99063.47;6064053;23;20026;-79
2021/12/21 08:48:29;;;;;;;7.77;2.70;;;;;;;-8.52;52.11;99075.03;6065153;23;20042;-79
2021/12/21 08:50:56;;;;;;;9.57;2.30;;;;;;;-8.48;51.73;99059.22;6065545;23;20504;-77
2021/12/21 08:53:23;;;;;;;5.17;2.47;;;;;;;-8.26;51.57;99079.75;6066067;23;20109;-75
2021/12/21 08:55:52;;;;;;;7.23;2.83;;;;;;;-8.21;51.83;99083.41;6065216;23;20018;-77
2021/12/21 08:58:17;;;;;;;6.77;2.53;;;;;;;-8.31;51.74;99069.41;6067554;23;20018;-77
2021/12/21 09:00:44;;;;;;;6.87;3.20;;;;;;;-8.45;51.82;99047.56;6088708;23;20401;-78
2021/12/21 09:03:11;;;;;;;7.17;3.17;;;;;;;-8.19;52.18;99091.94;6088865;23;20022;-78
2021/12/21 09:05:38;;;;;;;6.27;2.67;;;;;;;-8.07;51.85;99091.72;6088602;23;20045;-79
2021/12/21 09:08:04;;;;;;;8.60;3.67;;;;;;;-8.05;51.68;99085.94;6066257;23;20015;-75
2021/12/21 09:10:31;;;;;;;7.50;3.77;;;;;;;-7.87;52.14;99093.66;6075611;23;19999;-77
2021/12/21 09:12:58;;;;;;;9.67;4.00;;;;;;;-7.89;52.00;99071.59;6098759;23;20407;-79
2021/12/21 09:15:25;;;;;;;11.23;4.60;;;;;;;-7.74;51.97;99096.81;6064386;23;20019;-79
2021/12/21 09:17:52;;;;;;;11.70;4.90;;;;;;;-7.90;52.12;99050.53;6063591;23;20460;-78
2021/12/21 09:20:21;;;;;;;26.10;7.37;;;;;;;-7.65;51.77;99089.72;6065990;23;20019;-79
2021/12/21 09:22:48;;;;;;;15.70;6.05;;;;;;;-7.73;51.40;99088.44;6091602;23;20082;-78
2021/12/21 09:25:14;;;;;;;15.67;5.93;;;;;;;-7.76;51.58;99073.13;6067073;23;20023;-79
2021/12/21 09:27:41;;;;;;;21.23;6.93;;;;;;;-7.64;51.74;99098.16;6069375;23;20022;-78
2021/12/21 09:30:11;;;;;;;15.43;6.05;;;;;;;-7.63;51.91;99087.28;6069719;23;20042;-78
2021/12/21 09:32:40;;;;;;;12.52;5.20;;;;;;;-7.71;52.05;99057.41;6074020;23;20421;-78
2021/12/21 09:35:07;;;;;;;17.23;6.40;;;;;;;-7.41;51.62;99089.25;6053642;23;20026;-76
2021/12/21 09:37:39;;;;;;;19.47;6.23;;;;;;;-7.45;51.41;99085.69;6075424;23;20019;-77
2021/12/21 09:40:11;;;;;;;12.50;4.72;;;;;;;-7.47;51.38;99083.88;6102567;23;20022;-79
2021/12/21 09:42:40;;;;;;;9.65;4.07;;;;;;;-7.37;51.79;99101.25;6077941;23;20361;-77
2021/12/21 09:45:07;;;;;;;10.38;3.83;;;;;;;-7.32;51.38;99096.44;6081417;23;20022;-77
2021/12/21 09:47:36;;;;;;;8.77;3.83;;;;;;;-7.31;51.70;99093.13;6034049;23;20153;-76
2021/12/21 09:50:05;;;;;;;7.30;3.27;;;;;;;-7.29;51.87;99086.50;6081287;23;20018;-77
2021/12/21 09:52:32;;;;;;;8.70;3.15;;;;;;;-7.56;51.24;99039.63;6103431;23;20023;-76
2021/12/21 09:55:00;;;;;;;8.45;3.42;;;;;;;-7.26;51.12;99092.56;6078776;23;20547;-76
2021/12/21 09:57:26;;;;;;;6.32;3.22;;;;;;;-7.50;50.91;99071.09;6082226;23;20342;-76
2021/12/21 09:59:53;;;;;;;6.88;3.45;;;;;;;-7.58;51.35;99088.38;6082608;23;20026;-76
2021/12/21 10:02:21;;;;;;;8.68;3.17;;;;;;;-7.67;51.20;99095.47;6082537;23;20041;-77
2021/12/21 10:05:02;;;;;;;12.15;3.08;;;;;;;-7.67;50.99;99105.59;6040883;23;20330;-77
2021/12/21 10:07:29;;;;;;;7.68;3.47;;;;;;;-7.77;51.50;99107.63;6097686;23;20033;-76
2021/12/21 10:10:12;;;;;;;5.65;2.83;;;;;;;-7.98;51.59;99079.56;6070931;23;20015;-77
2021/12/21 10:12:41;;;;;;;12.43;3.30;;;;;;;-7.81;51.42;99104.84;6095390;23;20022;-78
2021/12/21 10:15:14;;;;;;;7.35;3.75;;;;;;;-7.86;51.68;99081.88;6073407;23;20090;-78
2021/12/21 10:17:47;;;;;;;11.00;3.43;;;;;;;-7.72;51.53;99098.63;6070062;23;20019;-77
2021/12/21 10:20:13;;;;;;;8.18;3.63;;;;;;;-7.66;51.47;99099.75;6083333;23;20022;-78
2021/12/21 10:22:50;;;;;;;8.27;3.72;;;;;;;-7.66;51.19;99109.84;6100387;23;20433;-78
2021/12/21 10:25:16;;;;;;;9.20;3.80;;;;;;;-7.79;51.63;99072.97;6070869;23;20165;-78
2021/12/21 10:27:44;;;;;;;6.80;3.47;;;;;;;-7.73;51.39;99096.03;6072129;23;20023;-77
2021/12/21 10:30:10;;;;;;;11.48;3.78;;;;;;;-7.84;51.51;99085.34;6091510;23;20457;-77
2021/12/21 10:32:36;;;;;;;7.45;3.53;;;;;;;-7.78;51.34;99089.84;6066411;23;20050;-77
2021/12/21 10:35:10;;;;;;;7.30;3.67;;;;;;;-7.68;51.31;99108.91;6046442;23;20018;-78
2021/12/21 10:37:39;;;;;;;7.13;3.47;;;;;;;-7.67;51.53;99109.00;6091384;23;20051;-75
2021/12/21 10:40:23;;;;;;;6.82;3.55;;;;;;;-7.64;51.47;99109.16;6068061;23;20369;-79
2021/12/21 10:43:04;;;;;;;9.60;3.17;;;;;;;-7.80;51.19;99099.00;6070747;23;20015;-78
2021/12/21 10:45:32;;;;;;;12.05;3.75;;;;;;;-7.74;51.53;99097.69;6048189;23;20022;-77
2021/12/21 10:48:00;;;;;;;7.00;3.80;;;;;;;-7.71;51.42;99092.78;6101261;23;20472;-76
2021/12/21 10:50:32;;;;;;;7.35;3.80;;;;;;;-7.89;51.34;99071.59;6103943;23;20018;-77
2021/12/21 10:53:03;;;;;;;6.90;3.37;;;;;;;-7.81;51.29;99092.22;6050557;23;20053;-78
2021/12/21 10:55:38;;;;;;;7.35;3.03;;;;;;;-8.39;50.68;99018.50;6076312;23;20027;-77
2021/12/21 10:58:22;;;;;;;7.03;3.03;;;;;;;-8.57;51.10;99036.06;6099171;23;20018;-78
2021/12/21 11:01:01;;;;;;;6.17;2.87;;;;;;;-9.23;50.93;98973.59;6099008;23;20014;-76
2021/12/21 11:03:44;;;;;;;5.15;2.28;;;;;;;-9.94;51.26;98858.75;6074088;23;20018;-78
2021/12/21 11:06:13;;;;;;;6.50;2.58;;;;;;;-8.29;51.26;99102.28;6049099;23;20074;-78
2021/12/21 11:08:48;;;;;;;7.00;2.70;;;;;;;-8.29;51.29;99122.50;6071787;23;20368;-82
2021/12/21 11:11:53;;;;;;;;;;;;;;;-8.30;51.10;99120.75;6075262;23;20025;-79
2021/12/21 11:14:20;;;;;;;4.60;2.50;;;;;;;-8.30;50.86;99120.75;6055116;23;19928;-78
2021/12/21 11:16:53;;;;;;;6.50;2.43;;;;;;;-8.78;50.89;99073.56;6096061;23;20105;-78
2021/12/21 11:19:23;;;;;;;5.30;2.37;;;;;;;-8.44;51.30;99122.50;6098203;23;20030;-78
2021/12/21 11:21:52;;;;;;;7.77;3.00;;;;;;;-8.53;50.54;99140.56;6071461;23;20437;-77
2021/12/21 11:24:20;;;;;;;8.73;3.10;;;;;;;-8.57;51.06;99129.44;6045912;23;20477;-75
2021/12/21 11:26:56;;;;;;;6.90;3.40;;;;;;;-8.93;51.25;99059.31;6048066;23;20022;-77
2021/12/21 11:29:46;;;;;;;4.80;3.10;;;;;;;-8.43;50.70;99154.53;6074806;23;20018;-78
2021/12/21 11:32:22;;;;;;;7.27;2.70;;;;;;;-9.85;50.95;98947.41;6084263;23;20019;-80
2021/12/21 11:38:02;;;;;;;6.33;2.70;;;;;;;-9.70;50.33;98987.72;6054162;23;20023;-78
2021/12/21 11:40:42;;;;;;;8.87;3.00;;;;;;;-8.92;51.16;99140.88;6094911;23;20018;-76
2021/12/21 11:43:23;;;;;;;8.80;3.17;;;;;;;-8.80;51.02;99149.16;6049020;23;20026;-75
2021/12/21 11:46:18;;;;;;;4.90;2.70;;;;;;;-9.00;51.19;99124.44;6078163;23;20469;-78
2021/12/21 11:48:47;;;;;;;4.90;2.33;;;;;;;-8.96;51.11;99151.59;6112977;23;20026;-77
2021/12/21 11:51:22;;;;;;;7.57;2.93;;;;;;;-10.21;50.59;98994.78;6080895;23;20046;-78
2021/12/21 11:53:56;;;;;;;5.90;2.73;;;;;;;-10.76;51.24;98916.88;6071847;23;20034;-77
2021/12/21 11:56:27;;;;;;;7.23;2.57;;;;;;;-9.38;51.05;99147.47;6073489;23;20027;-77
2021/12/21 11:58:58;;;;;;;5.97;2.63;;;;;;;-9.31;51.15;99190.69;6070481;23;20022;-78
2021/12/21 12:01:29;;;;;;;7.40;2.90;;;;;;;-10.32;50.64;99038.56;6076471;23;20022;-75
2021/12/21 12:04:09;;;;;;;8.07;2.50;;;;;;;-10.09;51.12;99059.22;6054601;23;20028;-76
2021/12/21 12:06:47;;;;;;;9.23;2.97;;;;;;;-9.44;51.15;99199.16;6078329;23;20029;-77
2021/12/21 12:09:31;;;;;;;6.30;2.47;;;;;;;-9.80;50.15;99158.34;6077936;23;20018;-77
2021/12/21 12:12:11;;;;;;;7.83;2.77;;;;;;;-9.81;51.00;99165.00;6077223;23;20041;-77
2021/12/21 12:14:44;;;;;;;6.57;2.60;;;;;;;-9.69;51.47;99187.56;6077747;23;20054;-78
2021/12/21 12:17:22;;;;;;;6.67;2.83;;;;;;;-10.67;51.20;99038.13;6097313;23;20022;-79
2021/12/21 12:20:10;;;;;;;6.20;2.83;;;;;;;-10.52;51.33;99055.81;6050680;23;20018;-77
2021/12/21 12:22:42;;;;;;;5.70;2.83;;;;;;;-10.47;50.77;99081.25;6100196;23;20014;-79
2021/12/21 12:25:26;;;;;;;9.40;3.07;;;;;;;-11.29;51.00;98943.75;6076140;23;20025;-78
2021/12/21 12:28:30;;;;;;;;;;;;;;;;;;;;;
2021/12/21 12:31:50;;;;;;;;;;;;;;;;;;;;;
2021/12/21 12:34:26;;;;;;;6.33;2.73;;;;;;;-10.55;50.76;99100.91;6102268;23;20030;-78
2021/12/21 12:36:54;;;;;;;8.03;3.50;;;;;;;-9.90;51.37;99208.13;6082268;23;20038;-80
2021/12/21 12:39:50;;;;;;;5.23;2.20;;;;;;;-9.96;51.21;99220.34;6085442;23;20023;-75
2021/12/21 12:42:37;;;;;;;6.03;2.63;;;;;;;-10.48;51.37;99144.97;6085352;23;20014;-76
2021/12/21 12:45:03;;;;;;;5.43;2.70;;;;;;;-10.04;50.41;99231.56;6084400;23;20050;-77
2021/12/21 12:47:29;;;;;;;6.10;2.80;;;;;;;-10.09;51.06;99236.31;6105822;23;20055;-76